Aérodrome :
LOGIN :

S'inscrire | Disclaimer

   EN    FR    IT 

 










Légende :    VFR   VFR Marginal   IFR   IFR Intensif   IFR Très Intensif
Visi : 
Plafond : 
>= 8 km
>= 3000ft
5 à 8 km
1000 à 3000 ft
1500m à 5 km
500 à 1000 ft
800 à 1500m
200 à 500 ft
< 800m
< 200 ft
Symboles :   Orages  Brouillard  Fortes neiges  Fortes précipitations  Vent > 20 kt
SIGMETs :   Divers  Orages  Givrage  Turbulence  Onde Orograph.  Cendres Volcan.







- Altitude de l'aérodrome : 295 ft
- Code IATA : BWE


EDVE - Braunschweig

DERNIER METAR :
  • 151120Z 25008KT 9999 FEW016 BKN025 03/03 Q0996

METARs EXPIRÉS :
  • 151050Z 24010KT 9000 FEW011 BKN027 03/03 Q0996
  • 151020Z 25006KT 9000 FEW010 BKN031 03/03 Q0996
  • 150950Z 25006KT 9000 FEW018 BKN034 03/03 Q0995
  • 150920Z 26006KT 230V290 8000 BKN030 BKN042 02/02 Q0995
  • 150850Z 25006KT 9000 FEW034 BKN040 02/02 Q0994

TAF TAF EDVE
Valide du 15 à 12h jusqu'au 15 à 21h UTC


151100Z 1512/1521 24005KT 9999 SCT015 BKN025
TEMPO 1515/1521 BKN012
Pas de NOTAMs connus pour ce terrain.



MET'MAP, la Météo Aéronautique d'un coup d'oeil ! - Copyright ORBIFLY Décembre 2007 - Disclaimer

ORBIFLY MET'MAP TEAM :

Programmation & Développement : Alexandra Zaïnal
Conception & Développement : Baudouin d'Aumeries
Co-Programmation & Développement : Marc-Olivier Méhu
Soutien technique & logistique : Manuel Goepfert

Contact : metmap@orbifly.com




SOURCES & CREDITS :

   NOAA